sensor_id;sensor_type;location;lat;lon;timestamp;P1;durP1;ratioP1;P2;durP2;ratioP2
6053;SDS011;3055;50.886;14.814;2023-11-21T00:01:32;10.47;;;7.00;;
6053;SDS011;3055;50.886;14.814;2023-11-21T00:03:59;8.27;;;6.83;;
6053;SDS011;3055;50.886;14.814;2023-11-21T00:06:26;9.50;;;6.30;;
6053;SDS011;3055;50.886;14.814;2023-11-21T00:08:55;8.10;;;6.10;;
6053;SDS011;3055;50.886;14.814;2023-11-21T00:11:23;8.50;;;6.17;;
6053;SDS011;3055;50.886;14.814;2023-11-21T00:13:51;8.93;;;6.77;;
6053;SDS011;3055;50.886;14.814;2023-11-21T00:16:18;9.07;;;5.90;;
6053;SDS011;3055;50.886;14.814;2023-11-21T00:18:45;8.83;;;5.87;;
6053;SDS011;3055;50.886;14.814;2023-11-21T00:21:12;7.77;;;5.70;;
6053;SDS011;3055;50.886;14.814;2023-11-21T00:23:39;7.70;;;5.90;;
6053;SDS011;3055;50.886;14.814;2023-11-21T00:26:06;7.50;;;5.33;;
6053;SDS011;3055;50.886;14.814;2023-11-21T00:28:35;10.53;;;5.90;;
6053;SDS011;3055;50.886;14.814;2023-11-21T00:31:02;9.33;;;6.13;;
6053;SDS011;3055;50.886;14.814;2023-11-21T00:33:29;9.13;;;5.77;;
6053;SDS011;3055;50.886;14.814;2023-11-21T00:35:56;6.50;;;5.23;;
6053;SDS011;3055;50.886;14.814;2023-11-21T00:38:23;9.00;;;5.53;;
6053;SDS011;3055;50.886;14.814;2023-11-21T00:40:50;7.30;;;5.27;;
6053;SDS011;3055;50.886;14.814;2023-11-21T00:43:18;7.47;;;4.70;;
6053;SDS011;3055;50.886;14.814;2023-11-21T00:45:46;5.57;;;5.00;;
6053;SDS011;3055;50.886;14.814;2023-11-21T00:48:14;6.53;;;4.70;;
6053;SDS011;3055;50.886;14.814;2023-11-21T00:50:41;7.87;;;5.50;;
6053;SDS011;3055;50.886;14.814;2023-11-21T00:53:08;7.43;;;5.13;;
6053;SDS011;3055;50.886;14.814;2023-11-21T00:55:36;9.83;;;4.70;;
6053;SDS011;3055;50.886;14.814;2023-11-21T00:58:05;7.80;;;5.73;;
6053;SDS011;3055;50.886;14.814;2023-11-21T01:00:32;9.33;;;5.30;;
6053;SDS011;3055;50.886;14.814;2023-11-21T01:03:01;6.20;;;5.10;;
6053;SDS011;3055;50.886;14.814;2023-11-21T01:05:28;8.67;;;5.53;;
6053;SDS011;3055;50.886;14.814;2023-11-21T01:07:55;10.87;;;6.07;;
6053;SDS011;3055;50.886;14.814;2023-11-21T01:10:22;12.33;;;7.60;;
6053;SDS011;3055;50.886;14.814;2023-11-21T01:12:50;11.57;;;7.07;;
6053;SDS011;3055;50.886;14.814;2023-11-21T01:15:17;11.87;;;6.73;;
6053;SDS011;3055;50.886;14.814;2023-11-21T01:17:44;12.20;;;6.40;;
6053;SDS011;3055;50.886;14.814;2023-11-21T01:20:13;10.17;;;6.70;;
6053;SDS011;3055;50.886;14.814;2023-11-21T01:22:40;10.47;;;6.27;;
6053;SDS011;3055;50.886;14.814;2023-11-21T01:25:08;9.37;;;5.80;;
6053;SDS011;3055;50.886;14.814;2023-11-21T01:27:35;8.43;;;5.63;;
6053;SDS011;3055;50.886;14.814;2023-11-21T01:30:03;10.50;;;5.90;;
6053;SDS011;3055;50.886;14.814;2023-11-21T01:32:32;7.67;;;5.10;;
6053;SDS011;3055;50.886;14.814;2023-11-21T01:35:00;8.80;;;5.97;;
6053;SDS011;3055;50.886;14.814;2023-11-21T01:37:28;7.87;;;5.47;;
6053;SDS011;3055;50.886;14.814;2023-11-21T01:39:55;10.00;;;5.53;;
6053;SDS011;3055;50.886;14.814;2023-11-21T01:42:22;8.37;;;5.20;;
6053;SDS011;3055;50.886;14.814;2023-11-21T01:44:49;7.73;;;5.53;;
6053;SDS011;3055;50.886;14.814;2023-11-21T01:47:16;8.00;;;5.27;;
6053;SDS011;3055;50.886;14.814;2023-11-21T01:49:44;10.73;;;6.23;;
6053;SDS011;3055;50.886;14.814;2023-11-21T01:52:12;8.60;;;6.17;;
6053;SDS011;3055;50.886;14.814;2023-11-21T01:54:41;9.23;;;7.10;;
6053;SDS011;3055;50.886;14.814;2023-11-21T01:57:08;9.03;;;5.63;;
6053;SDS011;3055;50.886;14.814;2023-11-21T01:59:36;11.83;;;6.93;;
6053;SDS011;3055;50.886;14.814;2023-11-21T02:02:03;7.50;;;6.03;;
6053;SDS011;3055;50.886;14.814;2023-11-21T02:04:31;7.33;;;5.60;;
6053;SDS011;3055;50.886;14.814;2023-11-21T02:06:58;6.17;;;5.13;;
6053;SDS011;3055;50.886;14.814;2023-11-21T02:09:26;6.17;;;5.17;;
6053;SDS011;3055;50.886;14.814;2023-11-21T02:11:56;9.93;;;5.40;;
6053;SDS011;3055;50.886;14.814;2023-11-21T02:14:23;8.23;;;4.87;;
6053;SDS011;3055;50.886;14.814;2023-11-21T02:16:52;5.20;;;4.67;;
6053;SDS011;3055;50.886;14.814;2023-11-21T02:19:20;7.80;;;6.07;;
6053;SDS011;3055;50.886;14.814;2023-11-21T02:21:50;8.70;;;5.83;;
6053;SDS011;3055;50.886;14.814;2023-11-21T02:24:20;7.03;;;5.47;;
6053;SDS011;3055;50.886;14.814;2023-11-21T02:26:47;7.23;;;6.07;;
6053;SDS011;3055;50.886;14.814;2023-11-21T02:29:16;8.40;;;5.83;;
6053;SDS011;3055;50.886;14.814;2023-11-21T02:31:47;8.57;;;5.67;;
6053;SDS011;3055;50.886;14.814;2023-11-21T02:34:14;8.63;;;6.10;;
6053;SDS011;3055;50.886;14.814;2023-11-21T02:36:42;7.97;;;5.90;;
6053;SDS011;3055;50.886;14.814;2023-11-21T02:39:09;6.40;;;5.77;;
6053;SDS011;3055;50.886;14.814;2023-11-21T02:41:38;9.00;;;5.77;;
6053;SDS011;3055;50.886;14.814;2023-11-21T02:44:05;8.23;;;5.67;;
6053;SDS011;3055;50.886;14.814;2023-11-21T02:46:33;8.50;;;5.40;;
6053;SDS011;3055;50.886;14.814;2023-11-21T02:49:00;11.23;;;5.93;;
6053;SDS011;3055;50.886;14.814;2023-11-21T02:51:27;8.73;;;5.73;;
6053;SDS011;3055;50.886;14.814;2023-11-21T02:53:55;6.70;;;5.37;;
6053;SDS011;3055;50.886;14.814;2023-11-21T02:56:25;8.00;;;5.30;;
6053;SDS011;3055;50.886;14.814;2023-11-21T02:58:54;9.53;;;5.87;;
6053;SDS011;3055;50.886;14.814;2023-11-21T03:01:22;7.33;;;5.83;;
6053;SDS011;3055;50.886;14.814;2023-11-21T03:03:50;7.10;;;5.53;;
6053;SDS011;3055;50.886;14.814;2023-11-21T03:06:17;5.77;;;5.00;;
6053;SDS011;3055;50.886;14.814;2023-11-21T03:08:45;9.93;;;5.00;;
6053;SDS011;3055;50.886;14.814;2023-11-21T03:11:12;8.30;;;5.00;;
6053;SDS011;3055;50.886;14.814;2023-11-21T03:13:39;6.70;;;4.93;;
6053;SDS011;3055;50.886;14.814;2023-11-21T03:16:09;8.73;;;5.00;;
6053;SDS011;3055;50.886;14.814;2023-11-21T03:18:36;5.93;;;4.63;;
6053;SDS011;3055;50.886;14.814;2023-11-21T03:21:03;8.10;;;4.80;;
6053;SDS011;3055;50.886;14.814;2023-11-21T03:23:32;8.30;;;5.53;;
6053;SDS011;3055;50.886;14.814;2023-11-21T03:25:59;7.87;;;5.47;;
6053;SDS011;3055;50.886;14.814;2023-11-21T03:28:26;8.20;;;6.00;;
6053;SDS011;3055;50.886;14.814;2023-11-21T03:30:55;12.50;;;7.33;;
6053;SDS011;3055;50.886;14.814;2023-11-21T03:33:23;12.57;;;7.37;;
6053;SDS011;3055;50.886;14.814;2023-11-21T03:35:51;13.20;;;8.53;;
6053;SDS011;3055;50.886;14.814;2023-11-21T03:38:18;15.40;;;9.10;;
6053;SDS011;3055;50.886;14.814;2023-11-21T03:40:45;15.87;;;9.70;;
6053;SDS011;3055;50.886;14.814;2023-11-21T03:43:13;17.10;;;9.30;;
6053;SDS011;3055;50.886;14.814;2023-11-21T03:45:40;12.13;;;7.67;;
6053;SDS011;3055;50.886;14.814;2023-11-21T03:48:07;11.57;;;6.83;;
6053;SDS011;3055;50.886;14.814;2023-11-21T03:50:36;12.13;;;7.60;;
6053;SDS011;3055;50.886;14.814;2023-11-21T03:53:03;12.10;;;6.73;;
6053;SDS011;3055;50.886;14.814;2023-11-21T03:55:30;9.40;;;6.43;;
6053;SDS011;3055;50.886;14.814;2023-11-21T03:57:57;11.37;;;7.20;;
6053;SDS011;3055;50.886;14.814;2023-11-21T04:00:24;10.30;;;7.03;;
6053;SDS011;3055;50.886;14.814;2023-11-21T04:02:52;9.27;;;5.83;;
6053;SDS011;3055;50.886;14.814;2023-11-21T04:05:19;9.13;;;6.43;;
6053;SDS011;3055;50.886;14.814;2023-11-21T04:07:49;9.43;;;6.77;;
6053;SDS011;3055;50.886;14.814;2023-11-21T04:10:16;6.90;;;5.77;;
6053;SDS011;3055;50.886;14.814;2023-11-21T04:12:44;7.57;;;5.37;;
6053;SDS011;3055;50.886;14.814;2023-11-21T04:15:11;6.77;;;5.20;;
6053;SDS011;3055;50.886;14.814;2023-11-21T04:17:39;5.53;;;4.90;;
6053;SDS011;3055;50.886;14.814;2023-11-21T04:20:07;6.77;;;5.07;;
6053;SDS011;3055;50.886;14.814;2023-11-21T04:22:36;5.70;;;4.40;;
6053;SDS011;3055;50.886;14.814;2023-11-21T04:25:08;6.23;;;4.70;;
6053;SDS011;3055;50.886;14.814;2023-11-21T04:27:36;5.63;;;5.13;;
6053;SDS011;3055;50.886;14.814;2023-11-21T04:30:03;5.20;;;4.17;;
6053;SDS011;3055;50.886;14.814;2023-11-21T04:32:31;5.33;;;4.60;;
6053;SDS011;3055;50.886;14.814;2023-11-21T04:34:58;5.00;;;4.50;;
6053;SDS011;3055;50.886;14.814;2023-11-21T04:37:25;6.63;;;5.80;;
6053;SDS011;3055;50.886;14.814;2023-11-21T04:39:52;6.33;;;5.07;;
6053;SDS011;3055;50.886;14.814;2023-11-21T04:42:21;6.70;;;5.40;;
6053;SDS011;3055;50.886;14.814;2023-11-21T04:44:48;7.27;;;4.50;;
6053;SDS011;3055;50.886;14.814;2023-11-21T04:47:15;7.50;;;4.90;;
6053;SDS011;3055;50.886;14.814;2023-11-21T04:49:45;5.50;;;4.73;;
6053;SDS011;3055;50.886;14.814;2023-11-21T04:52:13;5.23;;;4.50;;
6053;SDS011;3055;50.886;14.814;2023-11-21T04:54:40;6.60;;;4.67;;
6053;SDS011;3055;50.886;14.814;2023-11-21T04:57:08;6.63;;;4.90;;
6053;SDS011;3055;50.886;14.814;2023-11-21T04:59:36;5.57;;;5.07;;
6053;SDS011;3055;50.886;14.814;2023-11-21T05:02:03;9.10;;;5.03;;
6053;SDS011;3055;50.886;14.814;2023-11-21T05:04:31;7.27;;;5.13;;
6053;SDS011;3055;50.886;14.814;2023-11-21T05:06:58;6.57;;;5.37;;
6053;SDS011;3055;50.886;14.814;2023-11-21T05:09:25;5.77;;;4.93;;
6053;SDS011;3055;50.886;14.814;2023-11-21T05:11:53;6.67;;;5.97;;
6053;SDS011;3055;50.886;14.814;2023-11-21T05:14:21;8.40;;;5.13;;
6053;SDS011;3055;50.886;14.814;2023-11-21T05:16:49;6.90;;;5.37;;
6053;SDS011;3055;50.886;14.814;2023-11-21T05:19:17;9.77;;;5.93;;
6053;SDS011;3055;50.886;14.814;2023-11-21T05:21:44;8.00;;;6.03;;
6053;SDS011;3055;50.886;14.814;2023-11-21T05:24:11;10.37;;;6.13;;
6053;SDS011;3055;50.886;14.814;2023-11-21T05:26:38;8.43;;;6.30;;
6053;SDS011;3055;50.886;14.814;2023-11-21T05:29:05;7.03;;;5.60;;
6053;SDS011;3055;50.886;14.814;2023-11-21T05:31:33;8.10;;;5.73;;
6053;SDS011;3055;50.886;14.814;2023-11-21T05:34:02;6.80;;;5.57;;
6053;SDS011;3055;50.886;14.814;2023-11-21T05:36:30;9.07;;;6.43;;
6053;SDS011;3055;50.886;14.814;2023-11-21T05:38:57;7.07;;;5.57;;
6053;SDS011;3055;50.886;14.814;2023-11-21T05:41:24;7.97;;;6.07;;
6053;SDS011;3055;50.886;14.814;2023-11-21T05:43:51;7.33;;;5.67;;
6053;SDS011;3055;50.886;14.814;2023-11-21T05:46:19;6.00;;;5.40;;
6053;SDS011;3055;50.886;14.814;2023-11-21T05:48:46;7.90;;;5.50;;
6053;SDS011;3055;50.886;14.814;2023-11-21T05:51:15;5.57;;;5.07;;
6053;SDS011;3055;50.886;14.814;2023-11-21T05:53:42;9.37;;;5.13;;
6053;SDS011;3055;50.886;14.814;2023-11-21T05:56:09;6.70;;;6.03;;
6053;SDS011;3055;50.886;14.814;2023-11-21T05:58:36;8.03;;;6.10;;
6053;SDS011;3055;50.886;14.814;2023-11-21T06:01:05;6.63;;;5.70;;
6053;SDS011;3055;50.886;14.814;2023-11-21T06:03:32;7.67;;;4.90;;
6053;SDS011;3055;50.886;14.814;2023-11-21T06:05:59;8.87;;;5.57;;
6053;SDS011;3055;50.886;14.814;2023-11-21T06:08:28;9.30;;;7.10;;
6053;SDS011;3055;50.886;14.814;2023-11-21T06:10:55;7.77;;;6.97;;
6053;SDS011;3055;50.886;14.814;2023-11-21T06:13:22;8.97;;;8.07;;
6053;SDS011;3055;50.886;14.814;2023-11-21T06:15:49;7.53;;;6.83;;
6053;SDS011;3055;50.886;14.814;2023-11-21T06:18:17;7.80;;;7.00;;
6053;SDS011;3055;50.886;14.814;2023-11-21T06:20:44;7.27;;;6.53;;
6053;SDS011;3055;50.886;14.814;2023-11-21T06:23:11;14.27;;;7.07;;
6053;SDS011;3055;50.886;14.814;2023-11-21T06:25:40;9.47;;;6.90;;
6053;SDS011;3055;50.886;14.814;2023-11-21T06:28:07;12.07;;;7.13;;
6053;SDS011;3055;50.886;14.814;2023-11-21T06:30:34;8.53;;;6.43;;
6053;SDS011;3055;50.886;14.814;2023-11-21T06:33:01;8.83;;;7.20;;
6053;SDS011;3055;50.886;14.814;2023-11-21T06:35:28;9.43;;;6.87;;
6053;SDS011;3055;50.886;14.814;2023-11-21T06:37:58;8.87;;;6.90;;
6053;SDS011;3055;50.886;14.814;2023-11-21T06:40:25;10.53;;;6.83;;
6053;SDS011;3055;50.886;14.814;2023-11-21T06:42:54;8.77;;;6.93;;
6053;SDS011;3055;50.886;14.814;2023-11-21T06:45:23;8.20;;;6.60;;
6053;SDS011;3055;50.886;14.814;2023-11-21T06:47:50;8.13;;;7.07;;
6053;SDS011;3055;50.886;14.814;2023-11-21T06:50:17;9.63;;;6.87;;
6053;SDS011;3055;50.886;14.814;2023-11-21T06:52:46;9.07;;;6.67;;
6053;SDS011;3055;50.886;14.814;2023-11-21T06:55:13;12.23;;;7.57;;
6053;SDS011;3055;50.886;14.814;2023-11-21T06:57:41;9.57;;;7.70;;
6053;SDS011;3055;50.886;14.814;2023-11-21T07:00:10;13.13;;;7.60;;
6053;SDS011;3055;50.886;14.814;2023-11-21T07:02:37;12.67;;;8.17;;
6053;SDS011;3055;50.886;14.814;2023-11-21T07:05:05;15.20;;;8.07;;
6053;SDS011;3055;50.886;14.814;2023-11-21T07:07:32;12.87;;;8.50;;
6053;SDS011;3055;50.886;14.814;2023-11-21T07:10:00;11.13;;;8.40;;
6053;SDS011;3055;50.886;14.814;2023-11-21T07:12:28;12.93;;;8.20;;
6053;SDS011;3055;50.886;14.814;2023-11-21T07:14:56;10.23;;;8.93;;
6053;SDS011;3055;50.886;14.814;2023-11-21T07:17:24;10.17;;;7.20;;
6053;SDS011;3055;50.886;14.814;2023-11-21T07:19:51;9.17;;;8.17;;
6053;SDS011;3055;50.886;14.814;2023-11-21T07:22:18;14.63;;;8.37;;
6053;SDS011;3055;50.886;14.814;2023-11-21T07:24:47;12.83;;;8.40;;
6053;SDS011;3055;50.886;14.814;2023-11-21T07:27:15;12.60;;;8.37;;
6053;SDS011;3055;50.886;14.814;2023-11-21T07:29:43;10.57;;;8.33;;
6053;SDS011;3055;50.886;14.814;2023-11-21T07:32:10;12.17;;;9.07;;
6053;SDS011;3055;50.886;14.814;2023-11-21T07:34:39;12.67;;;8.20;;
6053;SDS011;3055;50.886;14.814;2023-11-21T07:37:07;9.80;;;7.63;;
6053;SDS011;3055;50.886;14.814;2023-11-21T07:39:34;10.10;;;7.90;;
6053;SDS011;3055;50.886;14.814;2023-11-21T07:42:01;9.83;;;8.23;;
6053;SDS011;3055;50.886;14.814;2023-11-21T07:44:29;10.83;;;7.80;;
6053;SDS011;3055;50.886;14.814;2023-11-21T07:46:56;12.90;;;9.47;;
6053;SDS011;3055;50.886;14.814;2023-11-21T07:49:23;8.40;;;7.03;;
6053;SDS011;3055;50.886;14.814;2023-11-21T07:51:53;10.50;;;8.67;;
6053;SDS011;3055;50.886;14.814;2023-11-21T07:54:20;17.77;;;13.10;;
6053;SDS011;3055;50.886;14.814;2023-11-21T07:56:47;18.13;;;13.80;;
6053;SDS011;3055;50.886;14.814;2023-11-21T07:59:14;20.00;;;15.70;;
6053;SDS011;3055;50.886;14.814;2023-11-21T08:01:43;23.00;;;16.00;;
6053;SDS011;3055;50.886;14.814;2023-11-21T08:04:11;22.27;;;14.10;;
6053;SDS011;3055;50.886;14.814;2023-11-21T08:06:38;16.73;;;11.13;;
6053;SDS011;3055;50.886;14.814;2023-11-21T08:09:08;13.97;;;10.00;;
6053;SDS011;3055;50.886;14.814;2023-11-21T08:11:35;23.40;;;13.93;;
6053;SDS011;3055;50.886;14.814;2023-11-21T08:14:04;16.73;;;11.00;;
6053;SDS011;3055;50.886;14.814;2023-11-21T08:16:31;17.47;;;9.37;;
6053;SDS011;3055;50.886;14.814;2023-11-21T08:18:58;13.03;;;9.10;;
6053;SDS011;3055;50.886;14.814;2023-11-21T08:21:26;17.40;;;9.30;;
6053;SDS011;3055;50.886;14.814;2023-11-21T08:23:54;11.40;;;8.40;;
6053;SDS011;3055;50.886;14.814;2023-11-21T08:26:23;12.10;;;9.03;;
6053;SDS011;3055;50.886;14.814;2023-11-21T08:28:50;12.17;;;8.10;;
6053;SDS011;3055;50.886;14.814;2023-11-21T08:31:23;13.27;;;8.93;;
6053;SDS011;3055;50.886;14.814;2023-11-21T08:33:51;10.67;;;7.70;;
6053;SDS011;3055;50.886;14.814;2023-11-21T08:36:20;9.20;;;6.97;;
6053;SDS011;3055;50.886;14.814;2023-11-21T08:38:49;14.17;;;6.63;;
6053;SDS011;3055;50.886;14.814;2023-11-21T08:41:17;9.97;;;6.03;;
6053;SDS011;3055;50.886;14.814;2023-11-21T08:43:47;9.87;;;5.90;;
6053;SDS011;3055;50.886;14.814;2023-11-21T08:46:14;7.37;;;5.47;;
6053;SDS011;3055;50.886;14.814;2023-11-21T08:48:43;10.27;;;5.57;;
6053;SDS011;3055;50.886;14.814;2023-11-21T08:51:10;9.87;;;5.83;;
6053;SDS011;3055;50.886;14.814;2023-11-21T08:53:39;9.87;;;5.50;;
6053;SDS011;3055;50.886;14.814;2023-11-21T08:56:06;9.53;;;6.67;;
6053;SDS011;3055;50.886;14.814;2023-11-21T08:58:35;8.00;;;4.97;;
6053;SDS011;3055;50.886;14.814;2023-11-21T09:01:05;7.37;;;4.83;;
6053;SDS011;3055;50.886;14.814;2023-11-21T09:03:32;6.93;;;4.87;;
6053;SDS011;3055;50.886;14.814;2023-11-21T09:05:59;9.73;;;4.80;;
6053;SDS011;3055;50.886;14.814;2023-11-21T09:08:26;5.20;;;3.97;;
6053;SDS011;3055;50.886;14.814;2023-11-21T09:10:54;9.67;;;4.37;;
6053;SDS011;3055;50.886;14.814;2023-11-21T09:13:22;5.47;;;3.67;;
6053;SDS011;3055;50.886;14.814;2023-11-21T09:15:50;9.67;;;3.50;;
6053;SDS011;3055;50.886;14.814;2023-11-21T09:18:18;4.70;;;3.37;;
6053;SDS011;3055;50.886;14.814;2023-11-21T09:20:45;4.53;;;3.27;;
6053;SDS011;3055;50.886;14.814;2023-11-21T09:23:12;5.93;;;4.03;;
6053;SDS011;3055;50.886;14.814;2023-11-21T09:25:39;9.43;;;4.37;;
6053;SDS011;3055;50.886;14.814;2023-11-21T09:28:06;4.60;;;3.73;;
6053;SDS011;3055;50.886;14.814;2023-11-21T09:30:34;4.80;;;3.83;;
6053;SDS011;3055;50.886;14.814;2023-11-21T09:33:01;7.03;;;3.60;;
6053;SDS011;3055;50.886;14.814;2023-11-21T09:35:32;6.43;;;3.70;;
6053;SDS011;3055;50.886;14.814;2023-11-21T09:37:59;7.60;;;3.50;;
6053;SDS011;3055;50.886;14.814;2023-11-21T09:40:32;4.77;;;3.60;;
6053;SDS011;3055;50.886;14.814;2023-11-21T09:43:03;5.50;;;3.93;;
6053;SDS011;3055;50.886;14.814;2023-11-21T09:45:34;7.83;;;4.27;;
6053;SDS011;3055;50.886;14.814;2023-11-21T09:48:02;4.50;;;4.00;;
6053;SDS011;3055;50.886;14.814;2023-11-21T09:50:32;4.87;;;4.27;;
6053;SDS011;3055;50.886;14.814;2023-11-21T09:53:03;5.57;;;4.30;;
6053;SDS011;3055;50.886;14.814;2023-11-21T09:55:40;5.83;;;4.47;;
6053;SDS011;3055;50.886;14.814;2023-11-21T09:58:09;6.43;;;4.00;;
6053;SDS011;3055;50.886;14.814;2023-11-21T10:00:39;5.50;;;3.97;;
6053;SDS011;3055;50.886;14.814;2023-11-21T10:03:07;5.10;;;4.40;;
6053;SDS011;3055;50.886;14.814;2023-11-21T10:05:36;9.43;;;5.10;;
6053;SDS011;3055;50.886;14.814;2023-11-21T10:08:04;5.77;;;4.33;;
6053;SDS011;3055;50.886;14.814;2023-11-21T10:10:35;5.40;;;4.43;;
6053;SDS011;3055;50.886;14.814;2023-11-21T10:13:03;5.13;;;4.10;;
6053;SDS011;3055;50.886;14.814;2023-11-21T10:15:33;4.90;;;4.20;;
6053;SDS011;3055;50.886;14.814;2023-11-21T10:18:04;6.50;;;4.17;;
6053;SDS011;3055;50.886;14.814;2023-11-21T10:20:35;7.83;;;4.83;;
6053;SDS011;3055;50.886;14.814;2023-11-21T10:23:03;5.60;;;3.50;;
6053;SDS011;3055;50.886;14.814;2023-11-21T10:25:32;4.73;;;3.67;;
6053;SDS011;3055;50.886;14.814;2023-11-21T10:28:02;4.73;;;3.57;;
6053;SDS011;3055;50.886;14.814;2023-11-21T10:30:32;5.87;;;3.17;;
6053;SDS011;3055;50.886;14.814;2023-11-21T10:33:02;4.27;;;3.27;;
6053;SDS011;3055;50.886;14.814;2023-11-21T10:35:41;8.87;;;3.37;;
6053;SDS011;3055;50.886;14.814;2023-11-21T10:38:12;5.23;;;3.50;;
6053;SDS011;3055;50.886;14.814;2023-11-21T10:40:39;4.07;;;3.27;;
6053;SDS011;3055;50.886;14.814;2023-11-21T10:43:07;5.67;;;4.10;;
6053;SDS011;3055;50.886;14.814;2023-11-21T10:45:36;3.20;;;2.90;;
6053;SDS011;3055;50.886;14.814;2023-11-21T10:48:05;4.53;;;3.20;;
6053;SDS011;3055;50.886;14.814;2023-11-21T10:50:34;3.23;;;2.93;;
6053;SDS011;3055;50.886;14.814;2023-11-21T10:53:03;3.40;;;2.87;;
6053;SDS011;3055;50.886;14.814;2023-11-21T10:55:30;3.40;;;2.13;;
6053;SDS011;3055;50.886;14.814;2023-11-21T10:57:59;2.10;;;1.90;;
6053;SDS011;3055;50.886;14.814;2023-11-21T11:00:29;2.43;;;1.63;;
6053;SDS011;3055;50.886;14.814;2023-11-21T11:02:57;2.13;;;1.60;;
6053;SDS011;3055;50.886;14.814;2023-11-21T11:05:25;1.40;;;1.30;;
6053;SDS011;3055;50.886;14.814;2023-11-21T11:07:56;1.50;;;1.10;;
6053;SDS011;3055;50.886;14.814;2023-11-21T11:10:27;1.47;;;1.37;;
6053;SDS011;3055;50.886;14.814;2023-11-21T11:12:55;1.20;;;1.20;;
6053;SDS011;3055;50.886;14.814;2023-11-21T11:15:23;2.93;;;1.27;;
6053;SDS011;3055;50.886;14.814;2023-11-21T11:17:54;2.10;;;1.20;;
6053;SDS011;3055;50.886;14.814;2023-11-21T11:20:23;1.20;;;1.10;;
6053;SDS011;3055;50.886;14.814;2023-11-21T11:22:59;1.30;;;1.20;;
6053;SDS011;3055;50.886;14.814;2023-11-21T11:25:44;1.67;;;1.40;;
6053;SDS011;3055;50.886;14.814;2023-11-21T11:28:20;1.40;;;1.30;;
6053;SDS011;3055;50.886;14.814;2023-11-21T11:30:56;1.33;;;1.23;;
6053;SDS011;3055;50.886;14.814;2023-11-21T11:33:31;1.50;;;1.40;;
6053;SDS011;3055;50.886;14.814;2023-11-21T11:36:06;1.83;;;1.73;;
6053;SDS011;3055;50.886;14.814;2023-11-21T11:38:37;2.23;;;2.03;;
6053;SDS011;3055;50.886;14.814;2023-11-21T11:41:06;1.77;;;1.67;;
6053;SDS011;3055;50.886;14.814;2023-11-21T11:43:34;2.00;;;1.90;;
6053;SDS011;3055;50.886;14.814;2023-11-21T11:46:09;1.70;;;1.60;;
6053;SDS011;3055;50.886;14.814;2023-11-21T11:48:38;1.80;;;1.70;;
6053;SDS011;3055;50.886;14.814;2023-11-21T11:51:09;9.30;;;2.33;;
6053;SDS011;3055;50.886;14.814;2023-11-21T11:53:39;4.40;;;2.23;;
6053;SDS011;3055;50.886;14.814;2023-11-21T11:56:22;2.70;;;2.50;;
6053;SDS011;3055;50.886;14.814;2023-11-21T11:58:51;2.50;;;2.30;;
6053;SDS011;3055;50.886;14.814;2023-11-21T12:01:19;3.03;;;2.80;;
6053;SDS011;3055;50.886;14.814;2023-11-21T12:06:45;2.40;;;2.30;;
6053;SDS011;3055;50.886;14.814;2023-11-21T12:09:13;2.50;;;2.30;;
6053;SDS011;3055;50.886;14.814;2023-11-21T12:11:46;3.37;;;3.07;;
6053;SDS011;3055;50.886;14.814;2023-11-21T12:14:13;3.20;;;2.90;;
6053;SDS011;3055;50.886;14.814;2023-11-21T12:16:41;5.23;;;3.73;;
6053;SDS011;3055;50.886;14.814;2023-11-21T12:19:09;4.37;;;3.97;;
6053;SDS011;3055;50.886;14.814;2023-11-21T12:21:36;4.13;;;3.10;;
6053;SDS011;3055;50.886;14.814;2023-11-21T12:24:04;4.13;;;3.43;;
6053;SDS011;3055;50.886;14.814;2023-11-21T12:26:33;3.20;;;3.00;;
6053;SDS011;3055;50.886;14.814;2023-11-21T12:29:02;4.40;;;3.33;;
6053;SDS011;3055;50.886;14.814;2023-11-21T12:31:32;5.07;;;3.53;;
6053;SDS011;3055;50.886;14.814;2023-11-21T12:34:00;4.37;;;4.00;;
6053;SDS011;3055;50.886;14.814;2023-11-21T12:36:27;3.17;;;2.93;;
6053;SDS011;3055;50.886;14.814;2023-11-21T12:38:55;3.80;;;3.40;;
6053;SDS011;3055;50.886;14.814;2023-11-21T12:41:22;4.60;;;4.20;;
6053;SDS011;3055;50.886;14.814;2023-11-21T12:43:49;5.30;;;4.80;;
6053;SDS011;3055;50.886;14.814;2023-11-21T12:46:18;4.77;;;4.30;;
6053;SDS011;3055;50.886;14.814;2023-11-21T12:48:45;5.30;;;4.80;;
6053;SDS011;3055;50.886;14.814;2023-11-21T12:51:13;7.63;;;5.73;;
6053;SDS011;3055;50.886;14.814;2023-11-21T12:53:41;5.70;;;5.13;;
6053;SDS011;3055;50.886;14.814;2023-11-21T12:56:09;6.90;;;5.60;;
6053;SDS011;3055;50.886;14.814;2023-11-21T12:58:37;6.17;;;5.57;;
6053;SDS011;3055;50.886;14.814;2023-11-21T13:01:06;6.57;;;5.30;;
6053;SDS011;3055;50.886;14.814;2023-11-21T13:03:38;5.50;;;5.00;;
6053;SDS011;3055;50.886;14.814;2023-11-21T13:06:06;5.97;;;5.17;;
6053;SDS011;3055;50.886;14.814;2023-11-21T13:08:34;5.93;;;5.33;;
6053;SDS011;3055;50.886;14.814;2023-11-21T13:11:04;6.13;;;5.33;;
6053;SDS011;3055;50.886;14.814;2023-11-21T13:13:32;7.43;;;5.57;;
6053;SDS011;3055;50.886;14.814;2023-11-21T13:15:59;7.10;;;6.20;;
6053;SDS011;3055;50.886;14.814;2023-11-21T13:18:29;9.50;;;7.10;;
6053;SDS011;3055;50.886;14.814;2023-11-21T13:20:59;9.40;;;7.33;;
6053;SDS011;3055;50.886;14.814;2023-11-21T13:23:28;11.63;;;8.67;;
6053;SDS011;3055;50.886;14.814;2023-11-21T13:25:55;12.80;;;9.43;;
6053;SDS011;3055;50.886;14.814;2023-11-21T13:28:23;14.83;;;9.50;;
6053;SDS011;3055;50.886;14.814;2023-11-21T13:30:57;15.33;;;11.00;;
6053;SDS011;3055;50.886;14.814;2023-11-21T13:33:28;14.93;;;10.67;;
6053;SDS011;3055;50.886;14.814;2023-11-21T13:35:55;17.57;;;11.40;;
6053;SDS011;3055;50.886;14.814;2023-11-21T13:38:24;16.10;;;11.57;;
6053;SDS011;3055;50.886;14.814;2023-11-21T13:40:57;21.00;;;12.70;;
6053;SDS011;3055;50.886;14.814;2023-11-21T13:43:24;20.10;;;12.13;;
6053;SDS011;3055;50.886;14.814;2023-11-21T13:45:53;16.43;;;12.27;;
6053;SDS011;3055;50.886;14.814;2023-11-21T13:48:25;16.80;;;11.00;;
6053;SDS011;3055;50.886;14.814;2023-11-21T13:50:59;16.43;;;10.20;;
6053;SDS011;3055;50.886;14.814;2023-11-21T13:53:37;13.53;;;9.60;;
6053;SDS011;3055;50.886;14.814;2023-11-21T13:56:06;13.10;;;10.33;;
6053;SDS011;3055;50.886;14.814;2023-11-21T13:58:34;14.23;;;10.53;;
6053;SDS011;3055;50.886;14.814;2023-11-21T14:01:09;15.17;;;11.17;;
6053;SDS011;3055;50.886;14.814;2023-11-21T14:03:50;19.20;;;12.07;;
6053;SDS011;3055;50.886;14.814;2023-11-21T14:06:23;17.50;;;12.40;;
6053;SDS011;3055;50.886;14.814;2023-11-21T14:08:59;20.53;;;13.10;;
6053;SDS011;3055;50.886;14.814;2023-11-21T14:11:30;20.30;;;12.60;;
6053;SDS011;3055;50.886;14.814;2023-11-21T14:13:57;20.57;;;13.80;;
6053;SDS011;3055;50.886;14.814;2023-11-21T14:16:25;22.07;;;13.83;;
6053;SDS011;3055;50.886;14.814;2023-11-21T14:18:52;22.13;;;15.10;;
6053;SDS011;3055;50.886;14.814;2023-11-21T14:21:26;23.50;;;15.53;;
6053;SDS011;3055;50.886;14.814;2023-11-21T14:23:53;24.53;;;14.70;;
6053;SDS011;3055;50.886;14.814;2023-11-21T14:26:22;21.50;;;13.53;;
6053;SDS011;3055;50.886;14.814;2023-11-21T14:28:49;22.80;;;15.67;;
6053;SDS011;3055;50.886;14.814;2023-11-21T14:31:18;25.63;;;15.37;;
6053;SDS011;3055;50.886;14.814;2023-11-21T14:33:45;21.03;;;14.07;;
6053;SDS011;3055;50.886;14.814;2023-11-21T14:36:12;22.70;;;15.27;;
6053;SDS011;3055;50.886;14.814;2023-11-21T14:38:42;26.07;;;15.43;;
6053;SDS011;3055;50.886;14.814;2023-11-21T14:41:11;24.47;;;14.67;;
6053;SDS011;3055;50.886;14.814;2023-11-21T14:43:40;25.57;;;14.80;;
6053;SDS011;3055;50.886;14.814;2023-11-21T14:46:08;24.93;;;15.17;;
6053;SDS011;3055;50.886;14.814;2023-11-21T14:48:39;23.47;;;14.43;;
6053;SDS011;3055;50.886;14.814;2023-11-21T14:51:07;23.73;;;15.87;;
6053;SDS011;3055;50.886;14.814;2023-11-21T14:53:55;21.13;;;13.97;;
6053;SDS011;3055;50.886;14.814;2023-11-21T14:56:25;20.33;;;13.57;;
6053;SDS011;3055;50.886;14.814;2023-11-21T14:58:57;17.27;;;11.37;;
6053;SDS011;3055;50.886;14.814;2023-11-21T15:01:26;11.73;;;8.43;;
6053;SDS011;3055;50.886;14.814;2023-11-21T15:04:08;10.67;;;8.00;;
6053;SDS011;3055;50.886;14.814;2023-11-21T15:06:40;8.27;;;6.47;;